sensor_id;sensor_type;location;lat;lon;timestamp;pressure;altitude;pressure_sealevel;temperature;humidity
48027;BME280;50714;49.208;5.364;2023-05-08T00:04:18;99772.38;;;16.11;84.96
48027;BME280;50714;49.208;5.364;2023-05-08T00:14:19;99774.50;;;16.09;85.01
48027;BME280;50714;49.208;5.364;2023-05-08T00:24:20;99763.22;;;15.93;85.44
48027;BME280;50714;49.208;5.364;2023-05-08T00:34:20;99764.84;;;15.83;85.35
48027;BME280;50714;49.208;5.364;2023-05-08T00:44:20;99775.59;;;15.78;86.14
48027;BME280;50714;49.208;5.364;2023-05-08T00:54:21;99775.38;;;15.79;86.70
48027;BME280;50714;49.208;5.364;2023-05-08T01:04:24;99773.81;;;15.83;87.54
48027;BME280;50714;49.208;5.364;2023-05-08T01:35:00;99775.72;;;15.83;89.45
48027;BME280;50714;49.208;5.364;2023-05-08T01:45:09;99794.69;;;15.89;89.44
48027;BME280;50714;49.208;5.364;2023-05-08T01:55:18;99785.69;;;15.89;89.61
48027;BME280;50714;49.208;5.364;2023-05-08T02:05:23;99791.97;;;15.89;90.06
48027;BME280;50714;49.208;5.364;2023-05-08T02:15:26;99799.66;;;15.92;89.54
48027;BME280;50714;49.208;5.364;2023-05-08T02:25:29;99797.09;;;15.97;89.48
48027;BME280;50714;49.208;5.364;2023-05-08T02:35:30;99801.78;;;15.90;89.49
48027;BME280;50714;49.208;5.364;2023-05-08T02:45:37;99798.91;;;15.85;90.12
48027;BME280;50714;49.208;5.364;2023-05-08T02:55:43;99802.44;;;15.74;89.92
48027;BME280;50714;49.208;5.364;2023-05-08T03:05:50;99800.63;;;15.68;90.39
48027;BME280;50714;49.208;5.364;2023-05-08T03:15:54;99807.72;;;15.69;90.26
48027;BME280;50714;49.208;5.364;2023-05-08T03:25:57;99813.41;;;15.67;90.15
48027;BME280;50714;49.208;5.364;2023-05-08T03:35:58;99808.03;;;15.61;89.95
48027;BME280;50714;49.208;5.364;2023-05-08T03:45:59;99810.75;;;15.61;90.08
48027;BME280;50714;49.208;5.364;2023-05-08T03:56:00;99818.56;;;15.57;90.27
48027;BME280;50714;49.208;5.364;2023-05-08T04:06:12;99822.13;;;15.58;91.57
48027;BME280;50714;49.208;5.364;2023-05-08T04:16:20;99835.31;;;15.54;91.21
48027;BME280;50714;49.208;5.364;2023-05-08T04:26:24;99831.94;;;15.59;90.78
48027;BME280;50714;49.208;5.364;2023-05-08T04:36:24;99821.63;;;15.61;90.91
48027;BME280;50714;49.208;5.364;2023-05-08T04:46:28;99834.19;;;15.62;91.39
48027;BME280;50714;49.208;5.364;2023-05-08T04:56:28;99847.78;;;15.62;91.54
48027;BME280;50714;49.208;5.364;2023-05-08T05:06:29;99848.69;;;15.74;91.91
48027;BME280;50714;49.208;5.364;2023-05-08T05:16:30;99847.69;;;15.87;91.72
48027;BME280;50714;49.208;5.364;2023-05-08T05:26:30;99862.50;;;15.91;91.68
48027;BME280;50714;49.208;5.364;2023-05-08T05:36:31;99866.22;;;15.96;91.40
48027;BME280;50714;49.208;5.364;2023-05-08T05:46:31;99867.66;;;15.99;91.61
48027;BME280;50714;49.208;5.364;2023-05-08T05:56:31;99868.63;;;16.05;90.89
48027;BME280;50714;49.208;5.364;2023-05-08T06:06:32;99868.66;;;16.16;91.08
48027;BME280;50714;49.208;5.364;2023-05-08T06:16:32;99880.66;;;16.27;90.89
48027;BME280;50714;49.208;5.364;2023-05-08T06:26:34;99892.66;;;16.37;90.26
48027;BME280;50714;49.208;5.364;2023-05-08T06:36:35;99899.00;;;16.61;90.96
48027;BME280;50714;49.208;5.364;2023-05-08T06:46:35;99899.97;;;16.97;89.19
48027;BME280;50714;49.208;5.364;2023-05-08T06:56:36;99903.88;;;17.13;89.23
48027;BME280;50714;49.208;5.364;2023-05-08T07:06:36;99904.59;;;17.43;88.77
48027;BME280;50714;49.208;5.364;2023-05-08T07:16:37;99911.34;;;17.76;87.13
48027;BME280;50714;49.208;5.364;2023-05-08T07:26:37;99913.31;;;18.03;86.49
48027;BME280;50714;49.208;5.364;2023-05-08T07:36:37;99927.47;;;18.29;86.22
48027;BME280;50714;49.208;5.364;2023-05-08T07:46:39;99922.84;;;19.03;87.11
48027;BME280;50714;49.208;5.364;2023-05-08T07:56:39;99935.44;;;20.58;81.59
48027;BME280;50714;49.208;5.364;2023-05-08T08:06:40;99932.59;;;20.26;78.25
48027;BME280;50714;49.208;5.364;2023-05-08T08:16:40;99929.34;;;20.78;79.09
48027;BME280;50714;49.208;5.364;2023-05-08T08:26:41;99929.28;;;21.32;75.75
48027;BME280;50714;49.208;5.364;2023-05-08T08:36:42;99933.13;;;21.04;75.12
48027;BME280;50714;49.208;5.364;2023-05-08T08:46:52;99939.78;;;20.81;74.73
48027;BME280;50714;49.208;5.364;2023-05-08T08:56:54;99943.13;;;21.15;74.74
48027;BME280;50714;49.208;5.364;2023-05-08T09:06:55;99943.78;;;20.95;73.41
48027;BME280;50714;49.208;5.364;2023-05-08T09:16:57;99947.59;;;21.58;72.29
48027;BME280;50714;49.208;5.364;2023-05-08T09:26:57;99951.03;;;21.38;70.61
48027;BME280;50714;49.208;5.364;2023-05-08T09:57:10;99954.75;;;20.95;72.11
48027;BME280;50714;49.208;5.364;2023-05-08T10:07:12;99959.22;;;21.70;70.39
48027;BME280;50714;49.208;5.364;2023-05-08T10:17:14;99975.47;;;23.32;68.59
48027;BME280;50714;49.208;5.364;2023-05-08T10:27:40;99967.47;;;25.39;60.74
48027;BME280;50714;49.208;5.364;2023-05-08T10:37:43;99964.22;;;25.66;63.67
48027;BME280;50714;49.208;5.364;2023-05-08T10:47:58;99964.53;;;27.68;52.37
48027;BME280;50714;49.208;5.364;2023-05-08T10:58:14;99957.69;;;27.79;52.01
48027;BME280;50714;49.208;5.364;2023-05-08T11:08:17;99956.31;;;28.72;52.56
48027;BME280;50714;49.208;5.364;2023-05-08T11:18:17;99957.78;;;27.88;52.38
48027;BME280;50714;49.208;5.364;2023-05-08T11:28:18;99947.59;;;27.37;51.81
48027;BME280;50714;49.208;5.364;2023-05-08T11:38:29;99943.16;;;25.41;51.05
48027;BME280;50714;49.208;5.364;2023-05-08T11:48:31;99953.56;;;24.27;55.40
48027;BME280;50714;49.208;5.364;2023-05-08T11:58:31;99940.94;;;24.06;55.71
48027;BME280;50714;49.208;5.364;2023-05-08T12:08:37;99927.22;;;23.86;56.37
48027;BME280;50714;49.208;5.364;2023-05-08T12:18:38;99928.94;;;24.41;56.41
48027;BME280;50714;49.208;5.364;2023-05-08T12:28:38;99921.81;;;24.79;56.28
48027;BME280;50714;49.208;5.364;2023-05-08T12:38:39;99927.63;;;24.13;55.64
48027;BME280;50714;49.208;5.364;2023-05-08T12:48:40;99913.22;;;23.62;55.88
48027;BME280;50714;49.208;5.364;2023-05-08T12:58:40;99911.56;;;23.56;56.20
48027;BME280;50714;49.208;5.364;2023-05-08T13:08:41;99912.69;;;23.04;56.66
48027;BME280;50714;49.208;5.364;2023-05-08T13:18:41;99908.16;;;22.47;57.35
48027;BME280;50714;49.208;5.364;2023-05-08T13:28:42;99905.91;;;22.24;58.05
48027;BME280;50714;49.208;5.364;2023-05-08T13:38:43;99901.34;;;21.97;58.58
48027;BME280;50714;49.208;5.364;2023-05-08T13:48:43;99888.75;;;21.96;59.36
48027;BME280;50714;49.208;5.364;2023-05-08T13:58:43;99887.47;;;22.14;59.11
48027;BME280;50714;49.208;5.364;2023-05-08T14:08:44;99891.16;;;21.88;59.53
48027;BME280;50714;49.208;5.364;2023-05-08T14:18:45;99879.25;;;21.67;59.40
48027;BME280;50714;49.208;5.364;2023-05-08T14:28:46;99874.66;;;21.83;59.19
48027;BME280;50714;49.208;5.364;2023-05-08T14:38:46;99875.88;;;22.07;59.21
48027;BME280;50714;49.208;5.364;2023-05-08T14:48:46;99864.41;;;22.20;59.21
48027;BME280;50714;49.208;5.364;2023-05-08T14:58:47;99858.59;;;22.22;58.93
48027;BME280;50714;49.208;5.364;2023-05-08T15:08:47;99868.50;;;22.18;59.01
48027;BME280;50714;49.208;5.364;2023-05-08T15:18:48;99861.78;;;21.93;58.33
48027;BME280;50714;49.208;5.364;2023-05-08T15:28:48;99858.66;;;21.69;59.06
48027;BME280;50714;49.208;5.364;2023-05-08T15:38:49;99874.25;;;21.59;58.89
48027;BME280;50714;49.208;5.364;2023-05-08T15:48:50;99873.31;;;21.38;58.38
48027;BME280;50714;49.208;5.364;2023-05-08T15:58:51;99873.53;;;21.31;59.39
48027;BME280;50714;49.208;5.364;2023-05-08T16:08:52;99888.22;;;21.15;59.11
48027;BME280;50714;49.208;5.364;2023-05-08T16:18:52;99878.84;;;21.11;59.06
48027;BME280;50714;49.208;5.364;2023-05-08T16:28:53;99892.00;;;21.09;59.63
48027;BME280;50714;49.208;5.364;2023-05-08T16:38:53;99885.63;;;20.98;60.63
48027;BME280;50714;49.208;5.364;2023-05-08T16:48:53;99886.28;;;20.79;61.41
48027;BME280;50714;49.208;5.364;2023-05-08T16:58:54;99879.56;;;20.64;62.04
48027;BME280;50714;49.208;5.364;2023-05-08T17:08:54;99883.44;;;20.41;62.44
48027;BME280;50714;49.208;5.364;2023-05-08T17:18:54;99893.97;;;20.28;62.64
48027;BME280;50714;49.208;5.364;2023-05-08T17:28:55;99913.94;;;20.01;63.18
48027;BME280;50714;49.208;5.364;2023-05-08T17:38:55;99917.50;;;19.63;63.98
48027;BME280;50714;49.208;5.364;2023-05-08T17:48:55;99917.53;;;19.47;65.21
48027;BME280;50714;49.208;5.364;2023-05-08T17:58:56;99897.81;;;19.28;65.05
48027;BME280;50714;49.208;5.364;2023-05-08T18:08:56;99891.09;;;19.02;65.81
48027;BME280;50714;49.208;5.364;2023-05-08T18:18:56;99881.50;;;18.83;66.36
48027;BME280;50714;49.208;5.364;2023-05-08T18:28:57;99860.75;;;18.70;66.93
48027;BME280;50714;49.208;5.364;2023-05-08T18:38:57;99853.59;;;18.52;67.73
48027;BME280;50714;49.208;5.364;2023-05-08T18:48:59;99861.53;;;18.37;68.53
48027;BME280;50714;49.208;5.364;2023-05-08T18:58:59;99856.59;;;18.22;69.54
48027;BME280;50714;49.208;5.364;2023-05-08T19:09:00;99846.22;;;17.96;69.99
48027;BME280;50714;49.208;5.364;2023-05-08T19:19:01;99865.06;;;17.81;71.35
48027;BME280;50714;49.208;5.364;2023-05-08T19:29:01;99851.53;;;17.74;71.58
48027;BME280;50714;49.208;5.364;2023-05-08T19:39:01;99859.03;;;17.67;71.98
48027;BME280;50714;49.208;5.364;2023-05-08T19:49:02;99849.53;;;17.58;72.20
48027;BME280;50714;49.208;5.364;2023-05-08T19:59:02;99863.09;;;17.41;73.04
48027;BME280;50714;49.208;5.364;2023-05-08T20:09:03;99868.78;;;17.28;73.51
48027;BME280;50714;49.208;5.364;2023-05-08T20:19:03;99867.25;;;16.97;74.26
48027;BME280;50714;49.208;5.364;2023-05-08T20:29:03;99867.44;;;16.84;75.14
48027;BME280;50714;49.208;5.364;2023-05-08T20:39:04;99852.75;;;16.73;75.79
48027;BME280;50714;49.208;5.364;2023-05-08T20:49:04;99852.75;;;16.73;76.33
48027;BME280;50714;49.208;5.364;2023-05-08T20:59:05;99841.06;;;16.54;76.35
48027;BME280;50714;49.208;5.364;2023-05-08T21:09:05;99836.78;;;16.47;76.99
48027;BME280;50714;49.208;5.364;2023-05-08T21:19:05;99839.25;;;16.36;77.73
48027;BME280;50714;49.208;5.364;2023-05-08T21:29:06;99837.31;;;16.25;77.63
48027;BME280;50714;49.208;5.364;2023-05-08T21:39:06;99813.47;;;16.09;77.85
48027;BME280;50714;49.208;5.364;2023-05-08T21:49:07;99818.41;;;16.00;78.23
48027;BME280;50714;49.208;5.364;2023-05-08T21:59:07;99815.75;;;15.82;79.47
48027;BME280;50714;49.208;5.364;2023-05-08T22:09:08;99805.22;;;15.67;80.02
48027;BME280;50714;49.208;5.364;2023-05-08T22:19:08;99803.81;;;15.65;79.75
48027;BME280;50714;49.208;5.364;2023-05-08T22:29:09;99807.06;;;15.74;79.72
48027;BME280;50714;49.208;5.364;2023-05-08T22:39:09;99781.88;;;15.60;80.17
48027;BME280;50714;49.208;5.364;2023-05-08T22:49:10;99768.22;;;15.48;80.39
48027;BME280;50714;49.208;5.364;2023-05-08T22:59:11;99746.84;;;15.33;80.53
48027;BME280;50714;49.208;5.364;2023-05-08T23:09:11;99734.16;;;15.27;81.01
48027;BME280;50714;49.208;5.364;2023-05-08T23:19:11;99744.25;;;15.39;81.00
48027;BME280;50714;49.208;5.364;2023-05-08T23:29:11;99736.94;;;15.39;81.19
48027;BME280;50714;49.208;5.364;2023-05-08T23:39:12;99729.75;;;15.45;81.59
48027;BME280;50714;49.208;5.364;2023-05-08T23:49:12;99731.09;;;15.35;81.68
48027;BME280;50714;49.208;5.364;2023-05-08T23:59:13;99722.75;;;15.19;81.91
